sensor_id;sensor_type;location;lat;lon;timestamp;P1;durP1;ratioP1;P2;durP2;ratioP2
15699;SDS011;7950;42.744;23.174;2023-04-24T00:00:59;9.63;;;8.27;;
15699;SDS011;7950;42.744;23.174;2023-04-24T00:03:28;9.77;;;8.73;;
15699;SDS011;7950;42.744;23.174;2023-04-24T00:05:56;10.20;;;8.33;;
15699;SDS011;7950;42.744;23.174;2023-04-24T00:08:25;11.17;;;8.30;;
15699;SDS011;7950;42.744;23.174;2023-04-24T00:10:54;10.37;;;8.37;;
15699;SDS011;7950;42.744;23.174;2023-04-24T00:13:22;11.10;;;9.20;;
15699;SDS011;7950;42.744;23.174;2023-04-24T00:15:52;10.60;;;8.97;;
15699;SDS011;7950;42.744;23.174;2023-04-24T00:18:21;9.57;;;7.93;;
15699;SDS011;7950;42.744;23.174;2023-04-24T00:20:49;9.23;;;7.93;;
15699;SDS011;7950;42.744;23.174;2023-04-24T00:23:18;11.13;;;7.87;;
15699;SDS011;7950;42.744;23.174;2023-04-24T00:25:50;11.20;;;7.83;;
15699;SDS011;7950;42.744;23.174;2023-04-24T00:28:19;9.53;;;7.87;;
15699;SDS011;7950;42.744;23.174;2023-04-24T00:30:47;10.77;;;8.37;;
15699;SDS011;7950;42.744;23.174;2023-04-24T00:33:17;8.80;;;7.90;;
15699;SDS011;7950;42.744;23.174;2023-04-24T00:35:45;9.87;;;8.10;;
15699;SDS011;7950;42.744;23.174;2023-04-24T00:38:14;9.03;;;8.10;;
15699;SDS011;7950;42.744;23.174;2023-04-24T00:40:42;8.20;;;7.40;;
15699;SDS011;7950;42.744;23.174;2023-04-24T00:43:11;11.20;;;8.63;;
15699;SDS011;7950;42.744;23.174;2023-04-24T00:45:40;10.53;;;8.17;;
15699;SDS011;7950;42.744;23.174;2023-04-24T00:48:09;10.63;;;8.27;;
15699;SDS011;7950;42.744;23.174;2023-04-24T00:50:40;11.73;;;8.73;;
15699;SDS011;7950;42.744;23.174;2023-04-24T00:53:10;8.23;;;7.30;;
15699;SDS011;7950;42.744;23.174;2023-04-24T00:55:38;9.47;;;7.90;;
15699;SDS011;7950;42.744;23.174;2023-04-24T00:58:07;10.93;;;8.10;;
15699;SDS011;7950;42.744;23.174;2023-04-24T01:00:36;9.73;;;7.73;;
15699;SDS011;7950;42.744;23.174;2023-04-24T01:03:05;9.53;;;8.20;;
15699;SDS011;7950;42.744;23.174;2023-04-24T01:05:34;10.03;;;8.00;;
15699;SDS011;7950;42.744;23.174;2023-04-24T01:08:05;10.20;;;8.90;;
15699;SDS011;7950;42.744;23.174;2023-04-24T01:10:34;9.77;;;8.30;;
15699;SDS011;7950;42.744;23.174;2023-04-24T01:13:04;10.10;;;8.40;;
15699;SDS011;7950;42.744;23.174;2023-04-24T01:15:34;12.43;;;8.17;;
15699;SDS011;7950;42.744;23.174;2023-04-24T01:18:03;10.50;;;8.00;;
15699;SDS011;7950;42.744;23.174;2023-04-24T01:20:32;10.57;;;7.63;;
15699;SDS011;7950;42.744;23.174;2023-04-24T01:23:04;11.77;;;8.03;;
15699;SDS011;7950;42.744;23.174;2023-04-24T01:25:33;9.03;;;8.13;;
15699;SDS011;7950;42.744;23.174;2023-04-24T01:28:02;9.13;;;8.17;;
15699;SDS011;7950;42.744;23.174;2023-04-24T01:30:31;8.70;;;7.80;;
15699;SDS011;7950;42.744;23.174;2023-04-24T01:33:00;8.73;;;7.90;;
15699;SDS011;7950;42.744;23.174;2023-04-24T01:35:29;10.07;;;8.17;;
15699;SDS011;7950;42.744;23.174;2023-04-24T01:37:57;10.03;;;8.93;;
15699;SDS011;7950;42.744;23.174;2023-04-24T01:40:27;9.30;;;8.03;;
15699;SDS011;7950;42.744;23.174;2023-04-24T01:42:56;9.97;;;8.43;;
15699;SDS011;7950;42.744;23.174;2023-04-24T01:48:22;10.47;;;8.43;;
15699;SDS011;7950;42.744;23.174;2023-04-24T01:50:51;10.63;;;8.63;;
15699;SDS011;7950;42.744;23.174;2023-04-24T01:53:19;9.03;;;8.10;;
15699;SDS011;7950;42.744;23.174;2023-04-24T01:55:49;10.30;;;8.80;;
15699;SDS011;7950;42.744;23.174;2023-04-24T01:58:18;10.53;;;9.23;;
15699;SDS011;7950;42.744;23.174;2023-04-24T02:00:46;11.13;;;9.13;;
15699;SDS011;7950;42.744;23.174;2023-04-24T02:03:18;11.23;;;7.97;;
15699;SDS011;7950;42.744;23.174;2023-04-24T02:05:47;9.47;;;8.47;;
15699;SDS011;7950;42.744;23.174;2023-04-24T02:08:15;11.03;;;8.57;;
15699;SDS011;7950;42.744;23.174;2023-04-24T02:10:44;10.03;;;8.00;;
15699;SDS011;7950;42.744;23.174;2023-04-24T02:13:13;8.97;;;7.90;;
15699;SDS011;7950;42.744;23.174;2023-04-24T02:15:42;8.70;;;7.23;;
15699;SDS011;7950;42.744;23.174;2023-04-24T02:18:11;8.57;;;7.70;;
15699;SDS011;7950;42.744;23.174;2023-04-24T02:20:39;9.43;;;7.97;;
15699;SDS011;7950;42.744;23.174;2023-04-24T02:23:07;9.83;;;8.83;;
15699;SDS011;7950;42.744;23.174;2023-04-24T02:25:36;12.00;;;8.60;;
15699;SDS011;7950;42.744;23.174;2023-04-24T02:28:09;11.07;;;8.53;;
15699;SDS011;7950;42.744;23.174;2023-04-24T02:30:39;9.13;;;8.13;;
15699;SDS011;7950;42.744;23.174;2023-04-24T02:33:07;11.40;;;8.73;;
15699;SDS011;7950;42.744;23.174;2023-04-24T02:35:36;9.80;;;8.80;;
15699;SDS011;7950;42.744;23.174;2023-04-24T02:38:05;9.43;;;7.47;;
15699;SDS011;7950;42.744;23.174;2023-04-24T02:40:33;10.97;;;8.37;;
15699;SDS011;7950;42.744;23.174;2023-04-24T02:43:02;11.63;;;8.70;;
15699;SDS011;7950;42.744;23.174;2023-04-24T02:45:30;11.20;;;8.00;;
15699;SDS011;7950;42.744;23.174;2023-04-24T02:48:02;8.87;;;7.83;;
15699;SDS011;7950;42.744;23.174;2023-04-24T02:50:31;10.00;;;8.07;;
15699;SDS011;7950;42.744;23.174;2023-04-24T02:53:00;9.50;;;8.00;;
15699;SDS011;7950;42.744;23.174;2023-04-24T02:55:39;11.60;;;10.40;;
15699;SDS011;7950;42.744;23.174;2023-04-24T02:58:07;10.60;;;9.33;;
15699;SDS011;7950;42.744;23.174;2023-04-24T03:00:37;10.40;;;8.60;;
15699;SDS011;7950;42.744;23.174;2023-04-24T03:03:07;10.93;;;8.80;;
15699;SDS011;7950;42.744;23.174;2023-04-24T03:05:36;13.70;;;10.80;;
15699;SDS011;7950;42.744;23.174;2023-04-24T03:08:04;27.37;;;19.43;;
15699;SDS011;7950;42.744;23.174;2023-04-24T03:10:33;22.83;;;16.93;;
15699;SDS011;7950;42.744;23.174;2023-04-24T03:13:02;18.03;;;13.57;;
15699;SDS011;7950;42.744;23.174;2023-04-24T03:15:30;12.27;;;8.87;;
15699;SDS011;7950;42.744;23.174;2023-04-24T03:17:59;17.60;;;11.10;;
15699;SDS011;7950;42.744;23.174;2023-04-24T03:20:30;11.17;;;9.07;;
15699;SDS011;7950;42.744;23.174;2023-04-24T03:22:58;11.03;;;8.47;;
15699;SDS011;7950;42.744;23.174;2023-04-24T03:25:27;13.57;;;10.37;;
15699;SDS011;7950;42.744;23.174;2023-04-24T03:28:00;12.70;;;9.73;;
15699;SDS011;7950;42.744;23.174;2023-04-24T03:30:29;10.23;;;9.10;;
15699;SDS011;7950;42.744;23.174;2023-04-24T03:32:57;11.27;;;8.93;;
15699;SDS011;7950;42.744;23.174;2023-04-24T03:35:26;10.77;;;9.30;;
15699;SDS011;7950;42.744;23.174;2023-04-24T03:37:56;10.57;;;8.43;;
15699;SDS011;7950;42.744;23.174;2023-04-24T03:40:24;9.53;;;7.20;;
15699;SDS011;7950;42.744;23.174;2023-04-24T03:42:54;10.37;;;7.63;;
15699;SDS011;7950;42.744;23.174;2023-04-24T03:45:23;9.73;;;8.73;;
15699;SDS011;7950;42.744;23.174;2023-04-24T03:47:51;11.80;;;9.07;;
15699;SDS011;7950;42.744;23.174;2023-04-24T03:50:20;10.77;;;7.77;;
15699;SDS011;7950;42.744;23.174;2023-04-24T03:52:49;9.27;;;7.83;;
15699;SDS011;7950;42.744;23.174;2023-04-24T03:55:18;9.23;;;7.80;;
15699;SDS011;7950;42.744;23.174;2023-04-24T03:57:47;10.40;;;7.50;;
15699;SDS011;7950;42.744;23.174;2023-04-24T04:00:15;9.80;;;8.33;;
15699;SDS011;7950;42.744;23.174;2023-04-24T04:02:45;8.60;;;7.70;;
15699;SDS011;7950;42.744;23.174;2023-04-24T04:05:13;9.50;;;7.60;;
15699;SDS011;7950;42.744;23.174;2023-04-24T04:07:42;11.57;;;8.07;;
15699;SDS011;7950;42.744;23.174;2023-04-24T04:10:10;7.77;;;6.87;;
15699;SDS011;7950;42.744;23.174;2023-04-24T04:12:40;9.17;;;6.93;;
15699;SDS011;7950;42.744;23.174;2023-04-24T04:15:09;8.70;;;7.53;;
15699;SDS011;7950;42.744;23.174;2023-04-24T04:17:38;7.93;;;6.40;;
15699;SDS011;7950;42.744;23.174;2023-04-24T04:20:07;9.67;;;7.50;;
15699;SDS011;7950;42.744;23.174;2023-04-24T04:22:37;13.07;;;9.33;;
15699;SDS011;7950;42.744;23.174;2023-04-24T04:25:09;13.47;;;8.73;;
15699;SDS011;7950;42.744;23.174;2023-04-24T04:27:41;12.10;;;8.07;;
15699;SDS011;7950;42.744;23.174;2023-04-24T04:30:15;11.53;;;7.93;;
15699;SDS011;7950;42.744;23.174;2023-04-24T04:32:44;12.83;;;8.13;;
15699;SDS011;7950;42.744;23.174;2023-04-24T04:35:12;8.70;;;6.70;;
15699;SDS011;7950;42.744;23.174;2023-04-24T04:37:41;8.80;;;7.13;;
15699;SDS011;7950;42.744;23.174;2023-04-24T04:40:10;8.60;;;7.37;;
15699;SDS011;7950;42.744;23.174;2023-04-24T04:42:38;11.77;;;6.67;;
15699;SDS011;7950;42.744;23.174;2023-04-24T04:45:09;8.97;;;6.53;;
15699;SDS011;7950;42.744;23.174;2023-04-24T04:47:38;11.03;;;6.47;;
15699;SDS011;7950;42.744;23.174;2023-04-24T04:50:07;6.73;;;5.87;;
15699;SDS011;7950;42.744;23.174;2023-04-24T04:52:36;8.27;;;6.13;;
15699;SDS011;7950;42.744;23.174;2023-04-24T04:55:05;15.00;;;8.33;;
15699;SDS011;7950;42.744;23.174;2023-04-24T04:57:35;12.73;;;7.60;;
15699;SDS011;7950;42.744;23.174;2023-04-24T05:00:05;10.83;;;8.10;;
15699;SDS011;7950;42.744;23.174;2023-04-24T05:02:37;9.90;;;7.57;;
15699;SDS011;7950;42.744;23.174;2023-04-24T05:05:06;11.37;;;8.23;;
15699;SDS011;7950;42.744;23.174;2023-04-24T05:07:36;9.37;;;6.83;;
15699;SDS011;7950;42.744;23.174;2023-04-24T05:10:05;11.53;;;7.07;;
15699;SDS011;7950;42.744;23.174;2023-04-24T05:12:34;12.00;;;7.57;;
15699;SDS011;7950;42.744;23.174;2023-04-24T05:15:05;9.80;;;7.73;;
15699;SDS011;7950;42.744;23.174;2023-04-24T05:17:34;9.57;;;7.03;;
15699;SDS011;7950;42.744;23.174;2023-04-24T05:20:04;11.33;;;6.83;;
15699;SDS011;7950;42.744;23.174;2023-04-24T05:22:36;10.20;;;7.47;;
15699;SDS011;7950;42.744;23.174;2023-04-24T05:25:06;10.87;;;7.57;;
15699;SDS011;7950;42.744;23.174;2023-04-24T05:27:35;9.83;;;7.07;;
15699;SDS011;7950;42.744;23.174;2023-04-24T05:30:06;12.70;;;8.50;;
15699;SDS011;7950;42.744;23.174;2023-04-24T05:32:36;10.63;;;8.00;;
15699;SDS011;7950;42.744;23.174;2023-04-24T05:35:04;10.13;;;8.07;;
15699;SDS011;7950;42.744;23.174;2023-04-24T05:37:34;11.10;;;7.30;;
15699;SDS011;7950;42.744;23.174;2023-04-24T05:40:02;11.23;;;7.00;;
15699;SDS011;7950;42.744;23.174;2023-04-24T05:42:32;9.27;;;7.37;;
15699;SDS011;7950;42.744;23.174;2023-04-24T05:45:01;8.77;;;6.20;;
15699;SDS011;7950;42.744;23.174;2023-04-24T05:50:21;8.40;;;6.43;;
15699;SDS011;7950;42.744;23.174;2023-04-24T05:52:50;10.47;;;6.37;;
15699;SDS011;7950;42.744;23.174;2023-04-24T05:55:19;10.47;;;6.03;;
15699;SDS011;7950;42.744;23.174;2023-04-24T05:57:47;6.40;;;5.57;;
15699;SDS011;7950;42.744;23.174;2023-04-24T06:00:16;8.30;;;6.00;;
15699;SDS011;7950;42.744;23.174;2023-04-24T06:02:46;6.13;;;5.47;;
15699;SDS011;7950;42.744;23.174;2023-04-24T06:05:17;8.37;;;5.53;;
15699;SDS011;7950;42.744;23.174;2023-04-24T06:10:39;9.57;;;5.77;;
15699;SDS011;7950;42.744;23.174;2023-04-24T06:13:08;5.87;;;5.07;;
15699;SDS011;7950;42.744;23.174;2023-04-24T06:15:37;7.73;;;5.33;;
15699;SDS011;7950;42.744;23.174;2023-04-24T06:18:07;7.00;;;5.17;;
15699;SDS011;7950;42.744;23.174;2023-04-24T06:20:38;10.27;;;5.27;;
15699;SDS011;7950;42.744;23.174;2023-04-24T06:23:06;6.93;;;5.57;;
15699;SDS011;7950;42.744;23.174;2023-04-24T06:25:35;6.50;;;5.37;;
15699;SDS011;7950;42.744;23.174;2023-04-24T06:28:04;6.07;;;4.97;;
15699;SDS011;7950;42.744;23.174;2023-04-24T06:30:32;8.20;;;5.60;;
15699;SDS011;7950;42.744;23.174;2023-04-24T06:33:01;6.87;;;5.40;;
15699;SDS011;7950;42.744;23.174;2023-04-24T06:35:47;8.43;;;5.50;;
15699;SDS011;7950;42.744;23.174;2023-04-24T06:38:16;6.90;;;5.80;;
15699;SDS011;7950;42.744;23.174;2023-04-24T06:40:44;8.07;;;6.17;;
15699;SDS011;7950;42.744;23.174;2023-04-24T06:43:13;8.37;;;6.23;;
15699;SDS011;7950;42.744;23.174;2023-04-24T06:45:41;8.03;;;5.93;;
15699;SDS011;7950;42.744;23.174;2023-04-24T06:48:10;10.00;;;6.57;;
15699;SDS011;7950;42.744;23.174;2023-04-24T06:50:39;7.10;;;5.90;;
15699;SDS011;7950;42.744;23.174;2023-04-24T06:53:27;7.83;;;5.43;;
15699;SDS011;7950;42.744;23.174;2023-04-24T06:55:55;8.43;;;5.57;;
15699;SDS011;7950;42.744;23.174;2023-04-24T06:58:24;9.43;;;5.57;;
15699;SDS011;7950;42.744;23.174;2023-04-24T07:00:52;7.13;;;5.00;;
15699;SDS011;7950;42.744;23.174;2023-04-24T07:03:21;9.13;;;5.70;;
15699;SDS011;7950;42.744;23.174;2023-04-24T07:05:50;7.23;;;5.63;;
15699;SDS011;7950;42.744;23.174;2023-04-24T07:08:19;7.33;;;5.50;;
15699;SDS011;7950;42.744;23.174;2023-04-24T07:10:50;10.37;;;5.20;;
15699;SDS011;7950;42.744;23.174;2023-04-24T07:13:18;7.23;;;5.20;;
15699;SDS011;7950;42.744;23.174;2023-04-24T07:15:47;8.97;;;5.43;;
15699;SDS011;7950;42.744;23.174;2023-04-24T07:18:17;6.37;;;5.67;;
15699;SDS011;7950;42.744;23.174;2023-04-24T07:20:45;6.83;;;5.83;;
15699;SDS011;7950;42.744;23.174;2023-04-24T07:23:16;7.70;;;5.37;;
15699;SDS011;7950;42.744;23.174;2023-04-24T07:25:45;7.13;;;6.07;;
15699;SDS011;7950;42.744;23.174;2023-04-24T07:28:15;6.30;;;5.00;;
15699;SDS011;7950;42.744;23.174;2023-04-24T07:30:44;6.87;;;5.60;;
15699;SDS011;7950;42.744;23.174;2023-04-24T07:33:13;7.00;;;5.87;;
15699;SDS011;7950;42.744;23.174;2023-04-24T07:35:44;7.77;;;6.10;;
15699;SDS011;7950;42.744;23.174;2023-04-24T07:38:13;6.90;;;6.17;;
15699;SDS011;7950;42.744;23.174;2023-04-24T07:40:41;6.40;;;5.70;;
15699;SDS011;7950;42.744;23.174;2023-04-24T07:43:12;9.53;;;6.13;;
15699;SDS011;7950;42.744;23.174;2023-04-24T07:45:42;10.60;;;6.10;;
15699;SDS011;7950;42.744;23.174;2023-04-24T07:48:11;8.37;;;6.00;;
15699;SDS011;7950;42.744;23.174;2023-04-24T07:50:42;8.97;;;6.10;;
15699;SDS011;7950;42.744;23.174;2023-04-24T07:53:11;12.80;;;6.40;;
15699;SDS011;7950;42.744;23.174;2023-04-24T07:55:39;7.20;;;5.93;;
15699;SDS011;7950;42.744;23.174;2023-04-24T07:58:08;13.50;;;6.93;;
15699;SDS011;7950;42.744;23.174;2023-04-24T08:03:33;9.47;;;6.40;;
15699;SDS011;7950;42.744;23.174;2023-04-24T08:06:02;6.30;;;5.70;;
15699;SDS011;7950;42.744;23.174;2023-04-24T08:08:31;9.47;;;6.00;;
15699;SDS011;7950;42.744;23.174;2023-04-24T08:11:00;7.57;;;5.93;;
15699;SDS011;7950;42.744;23.174;2023-04-24T08:13:28;8.50;;;6.47;;
15699;SDS011;7950;42.744;23.174;2023-04-24T08:15:57;6.67;;;5.83;;
15699;SDS011;7950;42.744;23.174;2023-04-24T08:18:27;6.10;;;5.43;;
15699;SDS011;7950;42.744;23.174;2023-04-24T08:20:56;9.73;;;6.40;;
15699;SDS011;7950;42.744;23.174;2023-04-24T08:23:27;8.60;;;6.60;;
15699;SDS011;7950;42.744;23.174;2023-04-24T08:25:56;6.10;;;5.50;;
15699;SDS011;7950;42.744;23.174;2023-04-24T08:28:25;7.93;;;5.73;;
15699;SDS011;7950;42.744;23.174;2023-04-24T08:30:53;6.97;;;6.20;;
15699;SDS011;7950;42.744;23.174;2023-04-24T08:33:22;7.83;;;6.73;;
15699;SDS011;7950;42.744;23.174;2023-04-24T08:35:52;9.50;;;6.20;;
15699;SDS011;7950;42.744;23.174;2023-04-24T08:38:21;8.80;;;6.57;;
15699;SDS011;7950;42.744;23.174;2023-04-24T08:40:49;7.23;;;6.03;;
15699;SDS011;7950;42.744;23.174;2023-04-24T08:43:18;8.33;;;6.50;;
15699;SDS011;7950;42.744;23.174;2023-04-24T08:45:50;9.27;;;6.57;;
15699;SDS011;7950;42.744;23.174;2023-04-24T08:48:22;7.43;;;6.10;;
15699;SDS011;7950;42.744;23.174;2023-04-24T08:50:58;8.67;;;6.40;;
15699;SDS011;7950;42.744;23.174;2023-04-24T08:53:27;8.63;;;5.80;;
15699;SDS011;7950;42.744;23.174;2023-04-24T08:55:56;8.47;;;5.90;;
15699;SDS011;7950;42.744;23.174;2023-04-24T08:58:25;6.43;;;5.83;;
15699;SDS011;7950;42.744;23.174;2023-04-24T09:00:55;8.23;;;6.97;;
15699;SDS011;7950;42.744;23.174;2023-04-24T09:06:31;7.67;;;5.80;;
15699;SDS011;7950;42.744;23.174;2023-04-24T09:09:02;6.37;;;5.73;;
15699;SDS011;7950;42.744;23.174;2023-04-24T09:11:32;7.03;;;6.13;;
15699;SDS011;7950;42.744;23.174;2023-04-24T09:14:00;6.97;;;5.87;;
15699;SDS011;7950;42.744;23.174;2023-04-24T09:16:29;7.77;;;6.10;;
15699;SDS011;7950;42.744;23.174;2023-04-24T09:19:02;9.73;;;7.00;;
15699;SDS011;7950;42.744;23.174;2023-04-24T09:21:32;8.10;;;6.63;;
15699;SDS011;7950;42.744;23.174;2023-04-24T09:24:04;10.03;;;6.70;;
15699;SDS011;7950;42.744;23.174;2023-04-24T09:26:35;14.97;;;9.83;;
15699;SDS011;7950;42.744;23.174;2023-04-24T09:29:04;6.90;;;6.17;;
15699;SDS011;7950;42.744;23.174;2023-04-24T09:31:33;8.03;;;6.27;;
15699;SDS011;7950;42.744;23.174;2023-04-24T09:34:02;8.20;;;7.00;;
15699;SDS011;7950;42.744;23.174;2023-04-24T09:36:35;9.07;;;5.80;;
15699;SDS011;7950;42.744;23.174;2023-04-24T09:39:07;7.47;;;6.57;;
15699;SDS011;7950;42.744;23.174;2023-04-24T09:41:43;7.33;;;6.10;;
15699;SDS011;7950;42.744;23.174;2023-04-24T09:44:14;8.97;;;6.87;;
15699;SDS011;7950;42.744;23.174;2023-04-24T09:46:44;10.00;;;6.77;;
15699;SDS011;7950;42.744;23.174;2023-04-24T09:49:21;7.30;;;6.60;;
15699;SDS011;7950;42.744;23.174;2023-04-24T09:51:53;6.87;;;6.27;;
15699;SDS011;7950;42.744;23.174;2023-04-24T09:54:52;8.33;;;6.30;;
15699;SDS011;7950;42.744;23.174;2023-04-24T09:57:21;9.03;;;6.60;;
15699;SDS011;7950;42.744;23.174;2023-04-24T09:59:49;7.00;;;6.30;;
15699;SDS011;7950;42.744;23.174;2023-04-24T10:02:21;8.33;;;6.50;;
15699;SDS011;7950;42.744;23.174;2023-04-24T10:04:54;11.27;;;6.20;;
15699;SDS011;7950;42.744;23.174;2023-04-24T10:07:26;7.50;;;5.00;;
15699;SDS011;7950;42.744;23.174;2023-04-24T10:09:55;6.67;;;5.17;;
15699;SDS011;7950;42.744;23.174;2023-04-24T10:12:24;6.97;;;4.57;;
15699;SDS011;7950;42.744;23.174;2023-04-24T10:14:55;7.67;;;5.40;;
15699;SDS011;7950;42.744;23.174;2023-04-24T10:17:25;10.13;;;6.30;;
15699;SDS011;7950;42.744;23.174;2023-04-24T10:19:56;11.10;;;6.20;;
15699;SDS011;7950;42.744;23.174;2023-04-24T10:22:29;6.13;;;5.53;;
15699;SDS011;7950;42.744;23.174;2023-04-24T10:24:59;10.30;;;6.43;;
15699;SDS011;7950;42.744;23.174;2023-04-24T10:27:31;7.80;;;6.10;;
15699;SDS011;7950;42.744;23.174;2023-04-24T10:30:01;10.03;;;6.40;;
15699;SDS011;7950;42.744;23.174;2023-04-24T10:32:31;8.17;;;6.70;;
15699;SDS011;7950;42.744;23.174;2023-04-24T10:34:59;7.63;;;5.53;;
15699;SDS011;7950;42.744;23.174;2023-04-24T10:37:30;8.50;;;5.70;;
15699;SDS011;7950;42.744;23.174;2023-04-24T10:40:06;7.30;;;5.23;;
15699;SDS011;7950;42.744;23.174;2023-04-24T10:42:39;7.50;;;5.63;;
15699;SDS011;7950;42.744;23.174;2023-04-24T10:45:15;6.50;;;5.77;;
15699;SDS011;7950;42.744;23.174;2023-04-24T10:47:51;7.03;;;4.70;;
15699;SDS011;7950;42.744;23.174;2023-04-24T10:50:26;5.43;;;4.90;;
15699;SDS011;7950;42.744;23.174;2023-04-24T10:53:06;5.67;;;4.97;;
15699;SDS011;7950;42.744;23.174;2023-04-24T10:55:44;8.53;;;4.70;;
15699;SDS011;7950;42.744;23.174;2023-04-24T10:58:15;4.17;;;3.77;;
15699;SDS011;7950;42.744;23.174;2023-04-24T11:00:55;4.13;;;3.77;;
15699;SDS011;7950;42.744;23.174;2023-04-24T11:03:34;5.13;;;3.60;;
15699;SDS011;7950;42.744;23.174;2023-04-24T11:06:05;5.40;;;4.07;;
15699;SDS011;7950;42.744;23.174;2023-04-24T11:08:42;4.73;;;3.97;;
15699;SDS011;7950;42.744;23.174;2023-04-24T11:11:12;4.30;;;4.00;;
15699;SDS011;7950;42.744;23.174;2023-04-24T11:14:06;3.87;;;3.40;;
15699;SDS011;7950;42.744;23.174;2023-04-24T11:16:37;8.33;;;5.40;;
15699;SDS011;7950;42.744;23.174;2023-04-24T11:19:18;5.00;;;3.77;;
15699;SDS011;7950;42.744;23.174;2023-04-24T11:21:55;4.67;;;3.90;;
15699;SDS011;7950;42.744;23.174;2023-04-24T11:24:31;5.80;;;4.00;;
15699;SDS011;7950;42.744;23.174;2023-04-24T11:27:06;4.30;;;3.90;;
15699;SDS011;7950;42.744;23.174;2023-04-24T11:29:41;4.90;;;4.20;;
15699;SDS011;7950;42.744;23.174;2023-04-24T11:32:16;4.40;;;4.00;;
15699;SDS011;7950;42.744;23.174;2023-04-24T11:34:51;3.83;;;3.53;;
15699;SDS011;7950;42.744;23.174;2023-04-24T11:37:23;5.07;;;4.57;;
15699;SDS011;7950;42.744;23.174;2023-04-24T11:39:56;5.80;;;3.70;;
15699;SDS011;7950;42.744;23.174;2023-04-24T11:42:28;5.17;;;3.90;;
15699;SDS011;7950;42.744;23.174;2023-04-24T11:45:02;4.90;;;3.73;;
15699;SDS011;7950;42.744;23.174;2023-04-24T11:47:37;13.20;;;5.97;;
15699;SDS011;7950;42.744;23.174;2023-04-24T11:50:07;3.97;;;3.57;;
15699;SDS011;7950;42.744;23.174;2023-04-24T11:52:38;5.20;;;4.70;;
15699;SDS011;7950;42.744;23.174;2023-04-24T11:55:23;5.07;;;3.93;;
15699;SDS011;7950;42.744;23.174;2023-04-24T11:57:54;4.93;;;4.00;;
15699;SDS011;7950;42.744;23.174;2023-04-24T12:00:25;6.07;;;3.80;;
15699;SDS011;7950;42.744;23.174;2023-04-24T12:03:03;4.67;;;3.97;;
15699;SDS011;7950;42.744;23.174;2023-04-24T12:05:34;5.80;;;3.97;;
15699;SDS011;7950;42.744;23.174;2023-04-24T12:08:03;5.17;;;4.13;;
15699;SDS011;7950;42.744;23.174;2023-04-24T12:10:35;5.30;;;4.80;;
15699;SDS011;7950;42.744;23.174;2023-04-24T12:13:04;5.97;;;5.37;;
15699;SDS011;7950;42.744;23.174;2023-04-24T12:15:33;5.20;;;4.70;;
15699;SDS011;7950;42.744;23.174;2023-04-24T12:18:03;7.87;;;4.67;;
15699;SDS011;7950;42.744;23.174;2023-04-24T12:20:32;6.13;;;4.93;;
15699;SDS011;7950;42.744;23.174;2023-04-24T12:23:01;5.57;;;4.90;;
15699;SDS011;7950;42.744;23.174;2023-04-24T12:25:30;4.67;;;4.10;;
15699;SDS011;7950;42.744;23.174;2023-04-24T12:28:08;5.77;;;4.47;;
15699;SDS011;7950;42.744;23.174;2023-04-24T12:30:39;6.20;;;4.57;;
15699;SDS011;7950;42.744;23.174;2023-04-24T12:33:23;4.70;;;4.30;;
15699;SDS011;7950;42.744;23.174;2023-04-24T12:35:51;7.07;;;4.87;;
15699;SDS011;7950;42.744;23.174;2023-04-24T12:38:22;5.23;;;4.70;;
15699;SDS011;7950;42.744;23.174;2023-04-24T12:41:02;4.70;;;4.20;;
15699;SDS011;7950;42.744;23.174;2023-04-24T12:43:32;6.53;;;4.37;;
15699;SDS011;7950;42.744;23.174;2023-04-24T12:46:01;7.00;;;4.40;;
15699;SDS011;7950;42.744;23.174;2023-04-24T12:48:31;5.30;;;4.40;;
15699;SDS011;7950;42.744;23.174;2023-04-24T12:50:59;5.73;;;4.07;;
15699;SDS011;7950;42.744;23.174;2023-04-24T12:53:28;5.07;;;4.67;;
15699;SDS011;7950;42.744;23.174;2023-04-24T12:55:57;5.33;;;4.30;;
15699;SDS011;7950;42.744;23.174;2023-04-24T12:58:28;4.40;;;4.00;;
15699;SDS011;7950;42.744;23.174;2023-04-24T13:00:56;5.10;;;4.57;;
15699;SDS011;7950;42.744;23.174;2023-04-24T13:03:25;4.60;;;4.20;;
15699;SDS011;7950;42.744;23.174;2023-04-24T13:05:53;5.07;;;4.10;;
15699;SDS011;7950;42.744;23.174;2023-04-24T13:08:22;5.10;;;4.20;;
15699;SDS011;7950;42.744;23.174;2023-04-24T13:10:50;4.57;;;4.00;;
15699;SDS011;7950;42.744;23.174;2023-04-24T13:13:20;6.43;;;4.10;;
15699;SDS011;7950;42.744;23.174;2023-04-24T13:15:50;4.30;;;3.90;;
15699;SDS011;7950;42.744;23.174;2023-04-24T13:18:18;4.83;;;4.10;;
15699;SDS011;7950;42.744;23.174;2023-04-24T13:20:47;5.13;;;4.03;;
15699;SDS011;7950;42.744;23.174;2023-04-24T13:23:16;4.27;;;3.87;;
15699;SDS011;7950;42.744;23.174;2023-04-24T13:25:44;4.87;;;4.20;;
15699;SDS011;7950;42.744;23.174;2023-04-24T13:28:13;5.97;;;4.20;;
15699;SDS011;7950;42.744;23.174;2023-04-24T13:30:42;4.57;;;3.90;;
15699;SDS011;7950;42.744;23.174;2023-04-24T13:33:12;5.70;;;4.10;;
15699;SDS011;7950;42.744;23.174;2023-04-24T13:35:41;4.07;;;3.67;;
15699;SDS011;7950;42.744;23.174;2023-04-24T13:38:12;4.37;;;3.80;;
15699;SDS011;7950;42.744;23.174;2023-04-24T13:44:00;4.73;;;4.07;;
15699;SDS011;7950;42.744;23.174;2023-04-24T13:49:31;7.07;;;4.17;;
15699;SDS011;7950;42.744;23.174;2023-04-24T13:52:00;4.30;;;3.90;;
15699;SDS011;7950;42.744;23.174;2023-04-24T13:57:19;4.30;;;3.90;;
15699;SDS011;7950;42.744;23.174;2023-04-24T13:59:48;3.97;;;3.50;;
15699;SDS011;7950;42.744;23.174;2023-04-24T14:02:17;4.47;;;3.70;;
15699;SDS011;7950;42.744;23.174;2023-04-24T14:04:47;6.13;;;4.03;;
15699;SDS011;7950;42.744;23.174;2023-04-24T14:07:16;4.73;;;3.70;;
15699;SDS011;7950;42.744;23.174;2023-04-24T14:09:44;4.10;;;3.70;;
15699;SDS011;7950;42.744;23.174;2023-04-24T14:12:13;4.57;;;4.17;;
15699;SDS011;7950;42.744;23.174;2023-04-24T14:14:43;4.07;;;3.63;;
15699;SDS011;7950;42.744;23.174;2023-04-24T14:17:12;4.90;;;3.60;;
15699;SDS011;7950;42.744;23.174;2023-04-24T14:19:40;4.67;;;3.80;;
15699;SDS011;7950;42.744;23.174;2023-04-24T14:22:10;4.57;;;4.00;;
15699;SDS011;7950;42.744;23.174;2023-04-24T14:24:39;6.20;;;3.93;;
15699;SDS011;7950;42.744;23.174;2023-04-24T14:27:07;4.20;;;3.90;;
15699;SDS011;7950;42.744;23.174;2023-04-24T14:29:36;4.77;;;4.30;;
15699;SDS011;7950;42.744;23.174;2023-04-24T14:32:05;5.83;;;3.90;;
15699;SDS011;7950;42.744;23.174;2023-04-24T14:34:35;4.23;;;3.83;;
15699;SDS011;7950;42.744;23.174;2023-04-24T14:37:14;4.63;;;3.40;;
15699;SDS011;7950;42.744;23.174;2023-04-24T14:39:43;3.60;;;3.30;;
15699;SDS011;7950;42.744;23.174;2023-04-24T14:42:26;3.13;;;2.93;;
15699;SDS011;7950;42.744;23.174;2023-04-24T14:44:55;4.53;;;3.63;;
15699;SDS011;7950;42.744;23.174;2023-04-24T14:47:23;3.67;;;3.37;;
15699;SDS011;7950;42.744;23.174;2023-04-24T14:49:52;4.37;;;3.90;;
15699;SDS011;7950;42.744;23.174;2023-04-24T14:52:22;4.43;;;4.00;;
15699;SDS011;7950;42.744;23.174;2023-04-24T14:54:51;4.60;;;4.00;;
15699;SDS011;7950;42.744;23.174;2023-04-24T14:57:19;4.47;;;3.50;;
15699;SDS011;7950;42.744;23.174;2023-04-24T14:59:48;4.67;;;3.83;;
15699;SDS011;7950;42.744;23.174;2023-04-24T15:02:17;4.10;;;3.70;;
15699;SDS011;7950;42.744;23.174;2023-04-24T15:04:46;3.83;;;3.40;;
15699;SDS011;7950;42.744;23.174;2023-04-24T15:07:15;6.27;;;4.10;;
15699;SDS011;7950;42.744;23.174;2023-04-24T15:09:45;7.40;;;3.90;;
15699;SDS011;7950;42.744;23.174;2023-04-24T15:15:07;4.77;;;4.37;;
15699;SDS011;7950;42.744;23.174;2023-04-24T15:17:37;6.10;;;4.57;;
15699;SDS011;7950;42.744;23.174;2023-04-24T15:20:06;5.00;;;4.60;;
15699;SDS011;7950;42.744;23.174;2023-04-24T15:22:36;5.30;;;4.80;;
15699;SDS011;7950;42.744;23.174;2023-04-24T15:25:06;5.73;;;4.90;;
15699;SDS011;7950;42.744;23.174;2023-04-24T15:27:39;5.23;;;4.73;;